CKS109 KPBI-TJSJ
Flight info
| Callsign | CKS109 |
|---|---|
| Flight time | 2h 8m |
| Altitude | 37000 |
| Route | MIXAE4 HALBI DCT ZFP DCT HAGIT Y290 BEANO BEANO3 |
| Aircraft | L101/H-SDFGHIRWXY/S |
Departure
| Time | 2026-04-20 18:26 |
|---|---|
| Airport | Palm Beach International Airport (KPBI) |
Arrival
| Time | 2026-04-20 20:35 |
|---|---|
| Airport | Luis Munoz Marin International Airport (TJSJ) |
| Time | Latitude | Longitude | Altitude | Speed | Heading |
|---|---|---|---|---|---|
| 2026-04-20 18:05 | 26.67938 | -80.08336 | 27 ft | 0 kts | 73° |
| 2026-04-20 18:19 | 26.67938 | -80.08335 | 27 ft | 1 kts | 73° |
| 2026-04-20 18:20 | 26.67942 | -80.08325 | 27 ft | 1 kts | 58° |
| 2026-04-20 18:20 | 26.67946 | -80.08324 | 27 ft | 1 kts | 25° |
| 2026-04-20 18:20 | 26.67961 | -80.08339 | 27 ft | 9 kts | 299° |
| 2026-04-20 18:20 | 26.68010 | -80.08419 | 26 ft | 12 kts | 320° |
| 2026-04-20 18:21 | 26.68078 | -80.08481 | 26 ft | 13 kts | 317° |
| 2026-04-20 18:21 | 26.68111 | -80.08566 | 27 ft | 12 kts | 281° |
| 2026-04-20 18:21 | 26.68120 | -80.08665 | 27 ft | 14 kts | 275° |
| 2026-04-20 18:21 | 26.68129 | -80.08790 | 27 ft | 17 kts | 272° |
| 2026-04-20 18:22 | 26.68130 | -80.08935 | 27 ft | 20 kts | 271° |
| 2026-04-20 18:22 | 26.68135 | -80.09101 | 27 ft | 23 kts | 273° |
| 2026-04-20 18:22 | 26.68144 | -80.09287 | 27 ft | 25 kts | 273° |
| 2026-04-20 18:22 | 26.68154 | -80.09488 | 27 ft | 27 kts | 273° |
| 2026-04-20 18:23 | 26.68162 | -80.09701 | 27 ft | 28 kts | 272° |
| 2026-04-20 18:23 | 26.68170 | -80.09913 | 26 ft | 27 kts | 272° |
| 2026-04-20 18:23 | 26.68180 | -80.10118 | 26 ft | 27 kts | 273° |
| 2026-04-20 18:23 | 26.68190 | -80.10328 | 26 ft | 27 kts | 273° |
| 2026-04-20 18:24 | 26.68200 | -80.10531 | 26 ft | 26 kts | 273° |
| 2026-04-20 18:24 | 26.68210 | -80.10730 | 26 ft | 18 kts | 273° |
| 2026-04-20 18:24 | 26.68211 | -80.10748 | 26 ft | 2 kts | 272° |
| 2026-04-20 18:24 | 26.68211 | -80.10785 | 26 ft | 9 kts | 269° |
| 2026-04-20 18:25 | 26.68260 | -80.10829 | 26 ft | 12 kts | 2° |
| 2026-04-20 18:25 | 26.68314 | -80.10779 | 26 ft | 11 kts | 79° |
| 2026-04-20 18:25 | 26.68315 | -80.10717 | 26 ft | 0 kts | 94° |
| 2026-04-20 18:26 | 26.68304 | -80.10419 | 27 ft | 85 kts | 91° |
| 2026-04-20 18:26 | 26.68259 | -80.09428 | 46 ft | 164 kts | 92° |
| 2026-04-20 18:26 | 26.68179 | -80.08065 | 843 ft | 185 kts | 91° |
| 2026-04-20 18:27 | 26.68103 | -80.06557 | 1872 ft | 199 kts | 90° |
| 2026-04-20 18:27 | 26.68008 | -80.05040 | 3306 ft | 188 kts | 92° |
| 2026-04-20 18:27 | 26.67898 | -80.03625 | 4685 ft | 181 kts | 92° |
| 2026-04-20 18:27 | 26.67795 | -80.02180 | 5557 ft | 200 kts | 92° |
| 2026-04-20 18:28 | 26.67703 | -80.00517 | 6174 ft | 230 kts | 91° |
| 2026-04-20 18:28 | 26.67738 | -79.98577 | 6365 ft | 266 kts | 83° |
| 2026-04-20 18:28 | 26.68075 | -79.96464 | 6440 ft | 287 kts | 73° |
| 2026-04-20 18:28 | 26.68812 | -79.94339 | 6714 ft | 297 kts | 61° |
| 2026-04-20 18:29 | 26.69947 | -79.92442 | 7487 ft | 287 kts | 51° |
| 2026-04-20 18:29 | 26.71151 | -79.90748 | 8614 ft | 265 kts | 48° |
| 2026-04-20 18:29 | 26.72391 | -79.89362 | 9750 ft | 244 kts | 35° |
| 2026-04-20 18:29 | 26.73780 | -79.88230 | 10045 ft | 256 kts | 39° |
| 2026-04-20 18:30 | 26.74985 | -79.86666 | 10273 ft | 272 kts | 56° |
| 2026-04-20 18:30 | 26.75741 | -79.84736 | 10527 ft | 288 kts | 78° |
| 2026-04-20 18:30 | 26.75836 | -79.82443 | 10721 ft | 303 kts | 99° |
| 2026-04-20 18:30 | 26.75196 | -79.80134 | 10880 ft | 320 kts | 116° |
| 2026-04-20 18:31 | 26.74114 | -79.77932 | 11055 ft | 329 kts | 122° |
| 2026-04-20 18:31 | 26.72854 | -79.75757 | 11167 ft | 338 kts | 126° |
| 2026-04-20 18:31 | 26.71447 | -79.73549 | 11284 ft | 356 kts | 127° |
| 2026-04-20 18:31 | 26.69959 | -79.71267 | 11411 ft | 369 kts | 127° |
| 2026-04-20 18:32 | 26.68723 | -79.68721 | 11459 ft | 381 kts | 109° |
| 2026-04-20 18:32 | 26.68198 | -79.65764 | 11587 ft | 395 kts | 94° |
| 2026-04-20 18:32 | 26.68198 | -79.62678 | 11820 ft | 397 kts | 88° |
| 2026-04-20 18:32 | 26.68299 | -79.59592 | 11973 ft | 400 kts | 89° |
| 2026-04-20 18:33 | 26.68285 | -79.56483 | 12241 ft | 403 kts | 91° |
| 2026-04-20 18:33 | 26.68195 | -79.53347 | 12713 ft | 404 kts | 92° |
| 2026-04-20 18:33 | 26.68075 | -79.50193 | 12927 ft | 407 kts | 92° |
| 2026-04-20 18:33 | 26.67992 | -79.47028 | 13177 ft | 409 kts | 91° |
| 2026-04-20 18:34 | 26.67950 | -79.43863 | 13496 ft | 412 kts | 90° |
| 2026-04-20 18:34 | 26.67945 | -79.40641 | 13736 ft | 417 kts | 90° |
| 2026-04-20 18:34 | 26.67944 | -79.37390 | 14103 ft | 419 kts | 90° |
| 2026-04-20 18:34 | 26.67934 | -79.34121 | 14462 ft | 421 kts | 90° |
| 2026-04-20 18:35 | 26.67909 | -79.30828 | 14794 ft | 425 kts | 90° |
| 2026-04-20 18:35 | 26.67882 | -79.27510 | 15159 ft | 427 kts | 90° |
| 2026-04-20 18:35 | 26.67860 | -79.24169 | 15444 ft | 430 kts | 90° |
| 2026-04-20 18:35 | 26.67840 | -79.20821 | 15735 ft | 433 kts | 90° |
| 2026-04-20 18:36 | 26.67754 | -79.17481 | 15996 ft | 437 kts | 96° |
| 2026-04-20 18:36 | 26.67051 | -79.14185 | 16319 ft | 436 kts | 112° |
| 2026-04-20 18:36 | 26.65777 | -79.11105 | 16642 ft | 437 kts | 118° |
| 2026-04-20 18:36 | 26.64451 | -79.08027 | 16957 ft | 440 kts | 116° |
| 2026-04-20 18:37 | 26.63256 | -79.04860 | 17285 ft | 444 kts | 113° |
| 2026-04-20 18:37 | 26.62106 | -79.01644 | 17615 ft | 446 kts | 114° |
| 2026-04-20 18:37 | 26.60888 | -78.98441 | 17893 ft | 449 kts | 116° |
| 2026-04-20 18:37 | 26.59574 | -78.95264 | 18256 ft | 451 kts | 117° |
| 2026-04-20 18:38 | 26.58199 | -78.92097 | 18537 ft | 455 kts | 118° |
| 2026-04-20 18:38 | 26.56815 | -78.88909 | 18851 ft | 458 kts | 117° |
| 2026-04-20 18:38 | 26.55454 | -78.85734 | 19211 ft | 459 kts | 117° |
| 2026-04-20 18:38 | 26.54071 | -78.82479 | 19496 ft | 463 kts | 117° |
| 2026-04-20 18:39 | 26.52666 | -78.79225 | 19751 ft | 465 kts | 120° |
| 2026-04-20 18:39 | 26.51039 | -78.76089 | 20091 ft | 466 kts | 125° |
| 2026-04-20 18:39 | 26.49228 | -78.73073 | 20434 ft | 469 kts | 127° |
| 2026-04-20 18:39 | 26.47391 | -78.70045 | 20760 ft | 472 kts | 126° |
| 2026-04-20 18:40 | 26.45593 | -78.66965 | 21026 ft | 476 kts | 125° |
| 2026-04-20 18:40 | 26.43818 | -78.63841 | 21378 ft | 479 kts | 125° |
| 2026-04-20 18:40 | 26.42042 | -78.60739 | 21716 ft | 482 kts | 126° |
| 2026-04-20 18:40 | 26.40206 | -78.57595 | 22050 ft | 484 kts | 126° |
| 2026-04-20 18:41 | 26.38349 | -78.54455 | 22362 ft | 487 kts | 126° |
| 2026-04-20 18:41 | 26.36477 | -78.51295 | 22706 ft | 490 kts | 126° |
| 2026-04-20 18:41 | 26.34594 | -78.48111 | 23041 ft | 493 kts | 126° |
| 2026-04-20 18:41 | 26.32700 | -78.44903 | 23341 ft | 496 kts | 126° |
| 2026-04-20 18:42 | 26.30796 | -78.41679 | 23631 ft | 499 kts | 126° |
| 2026-04-20 18:42 | 26.28882 | -78.38440 | 23974 ft | 502 kts | 126° |
| 2026-04-20 18:42 | 26.26952 | -78.35185 | 24284 ft | 504 kts | 126° |
| 2026-04-20 18:42 | 26.25012 | -78.31912 | 24563 ft | 508 kts | 126° |
| 2026-04-20 18:43 | 26.23056 | -78.28614 | 24882 ft | 511 kts | 126° |
| 2026-04-20 18:43 | 26.21091 | -78.25300 | 25152 ft | 515 kts | 126° |
| 2026-04-20 18:43 | 26.19104 | -78.21949 | 25284 ft | 522 kts | 126° |
| 2026-04-20 18:43 | 26.17084 | -78.18560 | 25400 ft | 529 kts | 126° |
| 2026-04-20 18:44 | 26.15037 | -78.15129 | 25520 ft | 535 kts | 126° |
| 2026-04-20 18:44 | 26.12969 | -78.11652 | 25649 ft | 542 kts | 126° |
| 2026-04-20 18:44 | 26.10880 | -78.08141 | 25882 ft | 545 kts | 126° |
| 2026-04-20 18:44 | 26.08784 | -78.04620 | 26240 ft | 545 kts | 126° |
| 2026-04-20 18:45 | 26.06688 | -78.01099 | 26581 ft | 546 kts | 126° |
| 2026-04-20 18:45 | 26.04587 | -77.97581 | 26939 ft | 546 kts | 126° |
| 2026-04-20 18:45 | 26.02483 | -77.94062 | 27307 ft | 547 kts | 126° |
| 2026-04-20 18:45 | 26.00376 | -77.90539 | 27666 ft | 547 kts | 126° |
| 2026-04-20 18:46 | 25.98263 | -77.87003 | 28047 ft | 548 kts | 126° |
| 2026-04-20 18:46 | 25.96152 | -77.83474 | 28448 ft | 548 kts | 126° |
| 2026-04-20 18:46 | 25.94041 | -77.79951 | 28828 ft | 548 kts | 126° |
| 2026-04-20 18:46 | 25.91919 | -77.76414 | 29197 ft | 549 kts | 126° |
| 2026-04-20 18:47 | 25.89824 | -77.72928 | 29547 ft | 549 kts | 126° |
| 2026-04-20 18:47 | 25.87698 | -77.69391 | 29959 ft | 549 kts | 126° |
| 2026-04-20 18:47 | 25.85577 | -77.65859 | 30364 ft | 549 kts | 126° |
| 2026-04-20 18:47 | 25.83457 | -77.62331 | 30849 ft | 548 kts | 126° |
| 2026-04-20 18:48 | 25.81341 | -77.58814 | 31325 ft | 546 kts | 126° |
| 2026-04-20 18:48 | 25.79228 | -77.55313 | 31807 ft | 544 kts | 126° |
| 2026-04-20 18:48 | 25.77123 | -77.51827 | 32271 ft | 543 kts | 127° |
| 2026-04-20 18:48 | 25.75022 | -77.48343 | 32732 ft | 541 kts | 127° |
| 2026-04-20 18:49 | 25.72957 | -77.44918 | 33208 ft | 540 kts | 127° |
| 2026-04-20 18:49 | 25.70869 | -77.41460 | 33687 ft | 538 kts | 127° |
| 2026-04-20 18:49 | 25.68781 | -77.38004 | 34066 ft | 539 kts | 127° |
| 2026-04-20 18:49 | 25.66695 | -77.34560 | 34524 ft | 538 kts | 127° |
| 2026-04-20 18:50 | 25.64604 | -77.31112 | 34921 ft | 539 kts | 127° |
| 2026-04-20 18:50 | 25.62510 | -77.27660 | 35303 ft | 539 kts | 127° |
| 2026-04-20 18:50 | 25.60418 | -77.24214 | 35722 ft | 539 kts | 127° |
| 2026-04-20 18:50 | 25.58328 | -77.20773 | 36092 ft | 539 kts | 127° |
| 2026-04-20 18:51 | 25.56234 | -77.17327 | 36464 ft | 540 kts | 127° |
| 2026-04-20 18:51 | 25.54132 | -77.13871 | 36811 ft | 539 kts | 127° |
| 2026-04-20 18:51 | 25.52075 | -77.10485 | 36974 ft | 520 kts | 127° |
| 2026-04-20 18:51 | 25.50047 | -77.07151 | 37126 ft | 529 kts | 127° |
| 2026-04-20 18:52 | 25.47947 | -77.03723 | 37142 ft | 541 kts | 127° |
| 2026-04-20 18:52 | 25.46543 | -77.01432 | 37119 ft | 543 kts | 127° |
| 2026-04-20 18:52 | 25.41637 | -76.93377 | 37113 ft | 543 kts | 127° |
| 2026-04-20 18:53 | 25.37412 | -76.86456 | 37113 ft | 543 kts | 127° |
| 2026-04-20 18:53 | 25.33895 | -76.80710 | 37115 ft | 543 kts | 127° |
| 2026-04-20 18:54 | 25.31823 | -76.77473 | 37371 ft | 537 kts | 129° |
| 2026-04-20 18:54 | 25.29614 | -76.74067 | 37247 ft | 550 kts | 127° |
| 2026-04-20 18:54 | 25.26825 | -76.69407 | 37104 ft | 545 kts | 125° |
| 2026-04-20 18:54 | 25.25434 | -76.67035 | 37080 ft | 542 kts | 126° |
| 2026-04-20 18:55 | 25.21283 | -76.60150 | 37119 ft | 542 kts | 127° |
| 2026-04-20 18:55 | 25.17035 | -76.53258 | 37116 ft | 542 kts | 127° |
| 2026-04-20 18:56 | 25.12797 | -76.46375 | 37122 ft | 542 kts | 127° |
| 2026-04-20 18:56 | 25.08543 | -76.39486 | 37124 ft | 542 kts | 127° |
| 2026-04-20 18:57 | 25.04285 | -76.32596 | 37115 ft | 542 kts | 127° |
| 2026-04-20 18:57 | 25.00058 | -76.25767 | 37112 ft | 543 kts | 127° |
| 2026-04-20 18:58 | 24.95798 | -76.18896 | 37105 ft | 542 kts | 127° |
| 2026-04-20 18:58 | 24.91541 | -76.12044 | 37110 ft | 542 kts | 127° |
| 2026-04-20 18:59 | 24.87282 | -76.05192 | 37111 ft | 542 kts | 127° |
| 2026-04-20 18:59 | 24.83019 | -75.98346 | 37115 ft | 541 kts | 127° |
| 2026-04-20 19:00 | 24.78754 | -75.91507 | 37106 ft | 541 kts | 127° |
| 2026-04-20 19:00 | 24.74489 | -75.84676 | 37106 ft | 541 kts | 127° |
| 2026-04-20 19:01 | 24.70256 | -75.77902 | 37101 ft | 540 kts | 127° |
| 2026-04-20 19:01 | 24.65994 | -75.71100 | 37095 ft | 540 kts | 127° |
| 2026-04-20 19:02 | 24.61721 | -75.64293 | 37097 ft | 540 kts | 127° |
| 2026-04-20 19:02 | 24.57477 | -75.57535 | 37099 ft | 540 kts | 127° |
| 2026-04-20 19:03 | 24.53201 | -75.50735 | 37084 ft | 539 kts | 127° |
| 2026-04-20 19:03 | 24.48927 | -75.43948 | 37085 ft | 539 kts | 127° |
| 2026-04-20 19:04 | 24.44677 | -75.37214 | 37082 ft | 539 kts | 127° |
| 2026-04-20 19:04 | 24.40407 | -75.30451 | 37081 ft | 539 kts | 127° |
| 2026-04-20 19:05 | 24.36125 | -75.23681 | 37083 ft | 539 kts | 127° |
| 2026-04-20 19:05 | 24.31848 | -75.16926 | 37083 ft | 539 kts | 127° |
| 2026-04-20 19:06 | 24.27565 | -75.10173 | 37084 ft | 539 kts | 127° |
| 2026-04-20 19:06 | 24.23308 | -75.03471 | 37081 ft | 539 kts | 127° |
| 2026-04-20 19:07 | 24.19018 | -74.96721 | 37084 ft | 538 kts | 126° |
| 2026-04-20 19:07 | 24.14726 | -74.89978 | 37085 ft | 538 kts | 126° |
| 2026-04-20 19:08 | 24.08298 | -74.79899 | 37081 ft | 538 kts | 126° |
| 2026-04-20 19:09 | 24.04035 | -74.73229 | 37084 ft | 538 kts | 126° |
| 2026-04-20 19:09 | 23.99742 | -74.66520 | 37083 ft | 537 kts | 126° |
| 2026-04-20 19:10 | 23.95452 | -74.59824 | 37076 ft | 536 kts | 126° |
| 2026-04-20 19:10 | 23.91180 | -74.53161 | 37081 ft | 535 kts | 126° |
| 2026-04-20 19:11 | 23.86900 | -74.46505 | 37078 ft | 534 kts | 126° |
| 2026-04-20 19:11 | 23.82647 | -74.39898 | 37082 ft | 534 kts | 126° |
| 2026-04-20 19:12 | 23.78371 | -74.33248 | 37079 ft | 535 kts | 126° |
| 2026-04-20 19:12 | 23.74087 | -74.26609 | 37081 ft | 535 kts | 126° |
| 2026-04-20 19:13 | 23.69791 | -74.19958 | 37081 ft | 535 kts | 126° |
| 2026-04-20 19:13 | 23.65522 | -74.13351 | 37080 ft | 535 kts | 126° |
| 2026-04-20 19:14 | 23.61232 | -74.06728 | 37083 ft | 535 kts | 126° |
| 2026-04-20 19:14 | 23.56936 | -74.00104 | 37075 ft | 535 kts | 126° |
| 2026-04-20 19:15 | 23.52636 | -73.93481 | 37071 ft | 534 kts | 126° |
| 2026-04-20 19:15 | 23.48368 | -73.86913 | 37073 ft | 534 kts | 126° |
| 2026-04-20 19:16 | 23.44070 | -73.80310 | 37071 ft | 533 kts | 126° |
| 2026-04-20 19:16 | 23.39773 | -73.73722 | 37071 ft | 533 kts | 126° |
| 2026-04-20 19:17 | 23.35483 | -73.67153 | 37064 ft | 532 kts | 126° |
| 2026-04-20 19:17 | 23.31214 | -73.60618 | 37062 ft | 531 kts | 126° |
| 2026-04-20 19:18 | 23.26927 | -73.54062 | 37064 ft | 531 kts | 126° |
| 2026-04-20 19:18 | 23.22641 | -73.47520 | 37064 ft | 530 kts | 126° |
| 2026-04-20 19:19 | 23.18355 | -73.40984 | 37059 ft | 530 kts | 126° |
| 2026-04-20 19:19 | 23.14104 | -73.34511 | 37052 ft | 529 kts | 126° |
| 2026-04-20 19:20 | 23.09830 | -73.28013 | 37053 ft | 528 kts | 126° |
| 2026-04-20 19:20 | 23.05541 | -73.21505 | 37054 ft | 529 kts | 126° |
| 2026-04-20 19:21 | 23.01261 | -73.15015 | 37048 ft | 528 kts | 126° |
| 2026-04-20 19:21 | 22.97013 | -73.08578 | 37045 ft | 528 kts | 126° |
| 2026-04-20 19:22 | 22.92734 | -73.02104 | 37050 ft | 527 kts | 126° |
| 2026-04-20 19:22 | 22.88457 | -72.95642 | 37047 ft | 527 kts | 126° |
| 2026-04-20 19:23 | 22.84172 | -72.89177 | 37032 ft | 527 kts | 126° |
| 2026-04-20 19:23 | 22.79924 | -72.82781 | 37041 ft | 526 kts | 126° |
| 2026-04-20 19:24 | 22.75657 | -72.76352 | 37039 ft | 525 kts | 126° |
| 2026-04-20 19:24 | 22.71380 | -72.69916 | 37034 ft | 525 kts | 126° |
| 2026-04-20 19:25 | 22.67099 | -72.63486 | 37027 ft | 525 kts | 126° |
| 2026-04-20 19:25 | 22.62851 | -72.57112 | 37029 ft | 524 kts | 126° |
| 2026-04-20 19:26 | 22.58578 | -72.50709 | 37026 ft | 524 kts | 126° |
| 2026-04-20 19:26 | 22.54308 | -72.44326 | 37024 ft | 523 kts | 127° |
| 2026-04-20 19:27 | 22.50050 | -72.37963 | 37026 ft | 522 kts | 127° |
| 2026-04-20 19:27 | 22.45811 | -72.31639 | 37023 ft | 522 kts | 126° |
| 2026-04-20 19:28 | 22.41549 | -72.25274 | 37022 ft | 521 kts | 127° |
| 2026-04-20 19:28 | 22.37285 | -72.18935 | 37029 ft | 521 kts | 127° |
| 2026-04-20 19:29 | 22.33021 | -72.12600 | 37020 ft | 521 kts | 127° |
| 2026-04-20 19:29 | 22.28789 | -72.06309 | 37018 ft | 520 kts | 127° |
| 2026-04-20 19:30 | 22.24527 | -71.99990 | 37018 ft | 519 kts | 127° |
| 2026-04-20 19:30 | 22.20263 | -71.93672 | 37021 ft | 519 kts | 127° |
| 2026-04-20 19:31 | 22.16036 | -71.87410 | 37013 ft | 519 kts | 127° |
| 2026-04-20 19:31 | 22.11780 | -71.81116 | 37019 ft | 519 kts | 127° |
| 2026-04-20 19:32 | 22.07522 | -71.74829 | 37018 ft | 519 kts | 127° |
| 2026-04-20 19:32 | 22.03259 | -71.68540 | 37013 ft | 519 kts | 127° |
| 2026-04-20 19:33 | 21.98997 | -71.62259 | 37021 ft | 519 kts | 127° |
| 2026-04-20 19:33 | 21.94751 | -71.56010 | 37020 ft | 519 kts | 127° |
| 2026-04-20 19:34 | 21.90481 | -71.49735 | 37013 ft | 519 kts | 127° |
| 2026-04-20 19:34 | 21.86205 | -71.43456 | 37016 ft | 519 kts | 127° |
| 2026-04-20 19:35 | 21.81935 | -71.37193 | 37018 ft | 519 kts | 127° |
| 2026-04-20 19:35 | 21.77689 | -71.30972 | 37017 ft | 519 kts | 127° |
| 2026-04-20 19:36 | 21.73412 | -71.24713 | 37012 ft | 518 kts | 127° |
| 2026-04-20 19:36 | 21.69132 | -71.18456 | 37008 ft | 519 kts | 127° |
| 2026-04-20 19:37 | 21.64846 | -71.12201 | 37010 ft | 518 kts | 127° |
| 2026-04-20 19:37 | 21.60558 | -71.05957 | 37008 ft | 519 kts | 127° |
| 2026-04-20 19:38 | 21.56353 | -70.99659 | 37006 ft | 518 kts | 127° |
| 2026-04-20 19:38 | 21.52063 | -70.93488 | 37001 ft | 518 kts | 128° |
| 2026-04-20 19:39 | 21.47844 | -70.87207 | 36998 ft | 519 kts | 126° |
| 2026-04-20 19:39 | 21.43742 | -70.80821 | 36997 ft | 519 kts | 125° |
| 2026-04-20 19:40 | 21.39660 | -70.74436 | 36999 ft | 518 kts | 125° |
| 2026-04-20 19:40 | 21.35604 | -70.68089 | 36999 ft | 518 kts | 125° |
| 2026-04-20 19:41 | 21.31528 | -70.61700 | 36989 ft | 519 kts | 125° |
| 2026-04-20 19:41 | 21.27443 | -70.55312 | 36992 ft | 519 kts | 125° |
| 2026-04-20 19:42 | 21.23359 | -70.48929 | 36988 ft | 519 kts | 125° |
| 2026-04-20 19:42 | 21.19273 | -70.42554 | 36982 ft | 518 kts | 125° |
| 2026-04-20 19:43 | 21.15208 | -70.36215 | 36981 ft | 519 kts | 125° |
| 2026-04-20 19:43 | 21.11119 | -70.29839 | 36982 ft | 519 kts | 125° |
| 2026-04-20 19:44 | 21.07026 | -70.23473 | 36982 ft | 519 kts | 125° |
| 2026-04-20 19:44 | 21.02934 | -70.17107 | 36983 ft | 519 kts | 125° |
| 2026-04-20 19:45 | 20.98840 | -70.10745 | 36979 ft | 519 kts | 125° |
| 2026-04-20 19:45 | 20.94765 | -70.04425 | 36984 ft | 519 kts | 126° |
| 2026-04-20 19:46 | 20.90660 | -69.98068 | 36970 ft | 519 kts | 126° |
| 2026-04-20 19:46 | 20.86553 | -69.91715 | 36969 ft | 518 kts | 125° |
| 2026-04-20 19:47 | 20.82459 | -69.85382 | 36971 ft | 518 kts | 126° |
| 2026-04-20 19:47 | 20.79054 | -69.80124 | 36968 ft | 517 kts | 126° |
| 2026-04-20 19:48 | 20.74286 | -69.72769 | 36970 ft | 518 kts | 126° |
| 2026-04-20 19:48 | 20.70869 | -69.67503 | 36975 ft | 518 kts | 126° |
| 2026-04-20 19:49 | 20.66763 | -69.61180 | 36984 ft | 518 kts | 126° |
| 2026-04-20 19:49 | 20.62653 | -69.54860 | 36981 ft | 518 kts | 126° |
| 2026-04-20 19:50 | 20.58536 | -69.48543 | 36978 ft | 518 kts | 126° |
| 2026-04-20 19:50 | 20.54450 | -69.42273 | 36977 ft | 518 kts | 126° |
| 2026-04-20 19:51 | 20.50337 | -69.35971 | 36984 ft | 518 kts | 126° |
| 2026-04-20 19:51 | 20.46220 | -69.29665 | 36991 ft | 518 kts | 126° |
| 2026-04-20 19:52 | 20.42099 | -69.23361 | 36998 ft | 518 kts | 126° |
| 2026-04-20 19:52 | 20.37971 | -69.17064 | 36998 ft | 518 kts | 126° |
| 2026-04-20 19:53 | 20.33842 | -69.10762 | 37000 ft | 519 kts | 126° |
| 2026-04-20 19:53 | 20.29734 | -69.04493 | 37006 ft | 519 kts | 126° |
| 2026-04-20 19:54 | 20.25595 | -68.98191 | 37010 ft | 519 kts | 126° |
| 2026-04-20 19:54 | 20.21451 | -68.91886 | 37008 ft | 519 kts | 126° |
| 2026-04-20 19:55 | 20.17306 | -68.85593 | 37006 ft | 519 kts | 126° |
| 2026-04-20 19:55 | 20.13159 | -68.79301 | 37009 ft | 519 kts | 126° |
| 2026-04-20 19:56 | 20.09040 | -68.73043 | 37009 ft | 519 kts | 126° |
| 2026-04-20 19:56 | 20.04996 | -68.66652 | 37009 ft | 520 kts | 124° |
| 2026-04-20 19:57 | 20.00959 | -68.60259 | 37014 ft | 521 kts | 124° |
| 2026-04-20 19:57 | 19.96948 | -68.53839 | 37018 ft | 520 kts | 124° |
| 2026-04-20 19:58 | 19.92985 | -68.47463 | 37016 ft | 520 kts | 124° |
| 2026-04-20 19:58 | 19.89002 | -68.41038 | 37019 ft | 521 kts | 124° |
| 2026-04-20 19:59 | 19.85013 | -68.34615 | 37020 ft | 520 kts | 124° |
| 2026-04-20 19:59 | 19.81027 | -68.28194 | 37025 ft | 520 kts | 124° |
| 2026-04-20 20:00 | 19.77037 | -68.21779 | 37032 ft | 521 kts | 124° |
| 2026-04-20 20:00 | 19.73036 | -68.15366 | 37033 ft | 520 kts | 124° |
| 2026-04-20 20:01 | 19.69039 | -68.08953 | 37041 ft | 520 kts | 124° |
| 2026-04-20 20:01 | 19.65041 | -68.02546 | 37034 ft | 521 kts | 124° |
| 2026-04-20 20:02 | 19.61059 | -67.96171 | 37031 ft | 520 kts | 124° |
| 2026-04-20 20:02 | 19.57058 | -67.89770 | 37039 ft | 520 kts | 124° |
| 2026-04-20 20:03 | 19.53054 | -67.83379 | 37033 ft | 520 kts | 124° |
| 2026-04-20 20:03 | 19.49051 | -67.76996 | 37035 ft | 520 kts | 124° |
| 2026-04-20 20:04 | 19.45054 | -67.70666 | 37017 ft | 519 kts | 124° |
| 2026-04-20 20:04 | 19.41024 | -67.64304 | 37019 ft | 520 kts | 124° |
| 2026-04-20 20:05 | 19.37006 | -67.57925 | 37021 ft | 520 kts | 124° |
| 2026-04-20 20:05 | 19.32998 | -67.51557 | 37024 ft | 519 kts | 124° |
| 2026-04-20 20:06 | 19.29025 | -67.45228 | 37013 ft | 519 kts | 123° |
| 2026-04-20 20:06 | 19.25094 | -67.38800 | 37017 ft | 519 kts | 125° |
| 2026-04-20 20:07 | 19.20999 | -67.32496 | 37018 ft | 519 kts | 125° |
| 2026-04-20 20:07 | 19.16962 | -67.26175 | 37014 ft | 518 kts | 124° |
| 2026-04-20 20:08 | 19.12977 | -67.19876 | 37020 ft | 518 kts | 124° |
| 2026-04-20 20:08 | 19.08957 | -67.13535 | 37019 ft | 518 kts | 124° |
| 2026-04-20 20:09 | 19.04941 | -67.07196 | 37013 ft | 518 kts | 124° |
| 2026-04-20 20:09 | 19.00953 | -67.00914 | 37029 ft | 517 kts | 124° |
| 2026-04-20 20:10 | 18.96940 | -66.94598 | 36811 ft | 521 kts | 124° |
| 2026-04-20 20:10 | 18.94910 | -66.91405 | 35849 ft | 521 kts | 124° |
| 2026-04-20 20:10 | 18.92895 | -66.88237 | 34830 ft | 516 kts | 124° |
| 2026-04-20 20:10 | 18.90906 | -66.85111 | 33830 ft | 511 kts | 124° |
| 2026-04-20 20:11 | 18.88933 | -66.82014 | 32827 ft | 505 kts | 124° |
| 2026-04-20 20:11 | 18.86971 | -66.78933 | 31824 ft | 503 kts | 124° |
| 2026-04-20 20:11 | 18.85014 | -66.75860 | 30826 ft | 508 kts | 124° |
| 2026-04-20 20:11 | 18.83029 | -66.72747 | 29813 ft | 513 kts | 123° |
| 2026-04-20 20:12 | 18.81028 | -66.69613 | 28815 ft | 515 kts | 123° |
| 2026-04-20 20:12 | 18.79048 | -66.66512 | 27821 ft | 517 kts | 123° |
| 2026-04-20 20:12 | 18.77022 | -66.63366 | 26813 ft | 518 kts | 125° |
| 2026-04-20 20:13 | 18.72544 | -66.57369 | 24807 ft | 522 kts | 130° |
| 2026-04-20 20:13 | 18.70234 | -66.54471 | 23789 ft | 506 kts | 130° |
| 2026-04-20 20:13 | 18.68036 | -66.51658 | 22789 ft | 488 kts | 129° |
| 2026-04-20 20:13 | 18.65937 | -66.48923 | 21791 ft | 472 kts | 129° |
| 2026-04-20 20:14 | 18.63903 | -66.46272 | 20787 ft | 457 kts | 129° |
| 2026-04-20 20:14 | 18.61949 | -66.43740 | 19800 ft | 444 kts | 129° |
| 2026-04-20 20:14 | 18.60158 | -66.41435 | 17819 ft | 378 kts | 128° |
| 2026-04-20 20:14 | 18.58518 | -66.39328 | 16310 ft | 355 kts | 128° |
| 2026-04-20 20:15 | 18.57016 | -66.37395 | 15334 ft | 338 kts | 128° |
| 2026-04-20 20:15 | 18.55524 | -66.35467 | 14667 ft | 337 kts | 128° |
| 2026-04-20 20:15 | 18.54045 | -66.33556 | 13889 ft | 334 kts | 128° |
| 2026-04-20 20:15 | 18.52575 | -66.31660 | 13012 ft | 335 kts | 128° |
| 2026-04-20 20:16 | 18.51097 | -66.29760 | 12099 ft | 335 kts | 129° |
| 2026-04-20 20:16 | 18.49632 | -66.27877 | 11142 ft | 336 kts | 128° |
| 2026-04-20 20:16 | 18.48151 | -66.25973 | 10127 ft | 336 kts | 128° |
| 2026-04-20 20:16 | 18.46690 | -66.24092 | 9074 ft | 316 kts | 128° |
| 2026-04-20 20:17 | 18.45369 | -66.22392 | 7947 ft | 283 kts | 128° |
| 2026-04-20 20:17 | 18.44140 | -66.20852 | 6997 ft | 271 kts | 129° |
| 2026-04-20 20:17 | 18.42940 | -66.19382 | 6186 ft | 257 kts | 124° |
| 2026-04-20 20:17 | 18.42194 | -66.17847 | 5280 ft | 220 kts | 102° |
| 2026-04-20 20:18 | 18.42148 | -66.16269 | 3766 ft | 215 kts | 78° |
| 2026-04-20 20:18 | 18.42552 | -66.14793 | 2566 ft | 203 kts | 73° |
| 2026-04-20 20:18 | 18.43001 | -66.13422 | 1590 ft | 191 kts | 67° |
| 2026-04-20 20:18 | 18.43453 | -66.12199 | 1244 ft | 171 kts | 82° |
| 2026-04-20 20:19 | 18.43485 | -66.10960 | 1530 ft | 175 kts | 93° |
| 2026-04-20 20:19 | 18.43430 | -66.09643 | 1742 ft | 189 kts | 92° |
| 2026-04-20 20:19 | 18.43426 | -66.08286 | 1643 ft | 177 kts | 90° |
| 2026-04-20 20:19 | 18.43424 | -66.07048 | 1537 ft | 160 kts | 91° |
| 2026-04-20 20:20 | 18.43414 | -66.05947 | 1327 ft | 145 kts | 92° |
| 2026-04-20 20:20 | 18.43406 | -66.04919 | 921 ft | 135 kts | 89° |
| 2026-04-20 20:20 | 18.43399 | -66.03978 | 500 ft | 125 kts | 88° |
| 2026-04-20 20:20 | 18.43387 | -66.03014 | 232 ft | 136 kts | 90° |
| 2026-04-20 20:21 | 18.43360 | -66.02013 | 318 ft | 131 kts | 90° |
| 2026-04-20 20:21 | 18.43331 | -66.01069 | 537 ft | 139 kts | 90° |
| 2026-04-20 20:21 | 18.43326 | -65.99977 | 1287 ft | 156 kts | 87° |
| 2026-04-20 20:21 | 18.43471 | -65.98816 | 2235 ft | 162 kts | 70° |
| 2026-04-20 20:22 | 18.44238 | -65.98035 | 3641 ft | 151 kts | 28° |
| 2026-04-20 20:22 | 18.45249 | -65.97878 | 4532 ft | 161 kts | 7° |
| 2026-04-20 20:22 | 18.46461 | -65.97923 | 4717 ft | 181 kts | 0° |
| 2026-04-20 20:22 | 18.47729 | -65.98065 | 4801 ft | 187 kts | 356° |
| 2026-04-20 20:23 | 18.49049 | -65.98282 | 5089 ft | 194 kts | 353° |
| 2026-04-20 20:23 | 18.50301 | -65.98956 | 5163 ft | 216 kts | 321° |
| 2026-04-20 20:23 | 18.51162 | -66.00310 | 4672 ft | 231 kts | 296° |
| 2026-04-20 20:23 | 18.51723 | -66.01900 | 4305 ft | 232 kts | 289° |
| 2026-04-20 20:24 | 18.52193 | -66.03525 | 3935 ft | 232 kts | 287° |
| 2026-04-20 20:24 | 18.52629 | -66.05164 | 3538 ft | 236 kts | 286° |
| 2026-04-20 20:24 | 18.53062 | -66.06824 | 3267 ft | 232 kts | 287° |
| 2026-04-20 20:24 | 18.53483 | -66.08411 | 3104 ft | 226 kts | 286° |
| 2026-04-20 20:25 | 18.53905 | -66.10012 | 3046 ft | 227 kts | 286° |
| 2026-04-20 20:25 | 18.54325 | -66.11624 | 3037 ft | 229 kts | 286° |
| 2026-04-20 20:25 | 18.54747 | -66.13245 | 3027 ft | 230 kts | 286° |
| 2026-04-20 20:25 | 18.55177 | -66.14871 | 2998 ft | 231 kts | 286° |
| 2026-04-20 20:26 | 18.55607 | -66.16498 | 2983 ft | 230 kts | 286° |
| 2026-04-20 20:26 | 18.56036 | -66.18126 | 3006 ft | 231 kts | 286° |
| 2026-04-20 20:26 | 18.56457 | -66.19765 | 3005 ft | 230 kts | 281° |
| 2026-04-20 20:26 | 18.56371 | -66.21433 | 2911 ft | 228 kts | 246° |
| 2026-04-20 20:27 | 18.55470 | -66.22726 | 2912 ft | 216 kts | 210° |
| 2026-04-20 20:27 | 18.54104 | -66.23219 | 3024 ft | 204 kts | 179° |
| 2026-04-20 20:27 | 18.52689 | -66.23154 | 3391 ft | 208 kts | 169° |
| 2026-04-20 20:27 | 18.51237 | -66.22951 | 3374 ft | 208 kts | 167° |
| 2026-04-20 20:28 | 18.50297 | -66.22799 | 3097 ft | 205 kts | 166° |
| 2026-04-20 20:28 | 18.48506 | -66.22497 | 2363 ft | 188 kts | 166° |
| 2026-04-20 20:28 | 18.47297 | -66.22261 | 2046 ft | 165 kts | 155° |
| 2026-04-20 20:28 | 18.46466 | -66.21487 | 1823 ft | 160 kts | 119° |
| 2026-04-20 20:29 | 18.46035 | -66.20473 | 2347 ft | 143 kts | 109° |
| 2026-04-20 20:29 | 18.45673 | -66.19483 | 2779 ft | 148 kts | 113° |
| 2026-04-20 20:29 | 18.45048 | -66.18589 | 2834 ft | 153 kts | 126° |
| 2026-04-20 20:29 | 18.44412 | -66.17692 | 2670 ft | 150 kts | 121° |
| 2026-04-20 20:30 | 18.43808 | -66.16813 | 2463 ft | 146 kts | 124° |
| 2026-04-20 20:30 | 18.43526 | -66.15855 | 2408 ft | 139 kts | 95° |
| 2026-04-20 20:30 | 18.43505 | -66.14831 | 2450 ft | 142 kts | 91° |
| 2026-04-20 20:30 | 18.43490 | -66.13777 | 2327 ft | 145 kts | 91° |
| 2026-04-20 20:31 | 18.43478 | -66.12716 | 2099 ft | 143 kts | 91° |
| 2026-04-20 20:31 | 18.43468 | -66.11696 | 1886 ft | 136 kts | 91° |
| 2026-04-20 20:31 | 18.43465 | -66.11350 | 1832 ft | 134 kts | 90° |
| 2026-04-20 20:31 | 18.43459 | -66.10677 | 1744 ft | 137 kts | 91° |
| 2026-04-20 20:32 | 18.43448 | -66.09643 | 1682 ft | 146 kts | 91° |
| 2026-04-20 20:32 | 18.43447 | -66.09551 | 1671 ft | 146 kts | 91° |
| 2026-04-20 20:32 | 18.43443 | -66.09013 | 1497 ft | 147 kts | 91° |
| 2026-04-20 20:32 | 18.43437 | -66.08361 | 1198 ft | 142 kts | 92° |
| 2026-04-20 20:33 | 18.43423 | -66.06999 | 1017 ft | 142 kts | 91° |
| 2026-04-20 20:33 | 18.43408 | -66.05935 | 999 ft | 147 kts | 92° |
| 2026-04-20 20:33 | 18.43373 | -66.04850 | 896 ft | 149 kts | 91° |
| 2026-04-20 20:33 | 18.43306 | -66.03786 | 635 ft | 140 kts | 91° |
| 2026-04-20 20:34 | 18.43298 | -66.03092 | 385 ft | 150 kts | 86° |
| 2026-04-20 20:34 | 18.43354 | -66.02003 | 133 ft | 149 kts | 86° |
| 2026-04-20 20:34 | 18.43351 | -66.00984 | 22 ft | 121 kts | 90° |
| 2026-04-20 20:34 | 18.43355 | -66.00288 | 25 ft | 73 kts | 91° |
| 2026-04-20 20:35 | 18.43389 | -65.99960 | 25 ft | 36 kts | 63° |
| 2026-04-20 20:35 | 18.43484 | -65.99913 | 24 ft | 16 kts | 349° |
| 2026-04-20 20:35 | 18.43580 | -65.99962 | 25 ft | 16 kts | 335° |
| 2026-04-20 20:35 | 18.43703 | -65.99988 | 26 ft | 20 kts | 343° |
| 2026-04-20 20:36 | 18.43777 | -66.00022 | 22 ft | 13 kts | 336° |
| 2026-04-20 20:36 | 18.43875 | -66.00065 | 22 ft | 17 kts | 338° |
| 2026-04-20 20:36 | 18.43991 | -66.00114 | 22 ft | 5 kts | 339° |
| 2026-04-20 20:36 | 18.44004 | -66.00110 | 22 ft | 5 kts | 31° |
| 2026-04-20 20:37 | 18.44014 | -66.00065 | 22 ft | 2 kts | 124° |
| 2026-04-20 20:37 | 18.44005 | -66.00063 | 22 ft | 0 kts | 158° |